createdAt,value
2022-10-05T00:01:50.000Z,279.71
2022-10-05T00:03:17.000Z,279.65
2022-10-05T00:05:23.000Z,279.59
2022-10-05T00:06:49.000Z,279.52
2022-10-05T00:08:55.000Z,279.52
2022-10-05T00:10:22.000Z,279.46
2022-10-05T00:12:28.000Z,279.46
2022-10-05T00:13:55.000Z,279.46
2022-10-05T00:16:01.000Z,279.46
2022-10-05T00:17:27.000Z,279.4
2022-10-05T00:19:33.000Z,279.34
2022-10-05T00:21:00.000Z,279.4
2022-10-05T00:23:06.000Z,279.34
2022-10-05T00:25:57.000Z,279.34
2022-10-05T00:27:24.000Z,279.34
2022-10-05T00:29:30.000Z,279.34
2022-10-05T00:30:56.000Z,279.34
2022-10-05T00:33:02.000Z,279.34
2022-10-05T00:34:29.000Z,279.27
2022-10-05T00:36:35.000Z,279.27
2022-10-05T00:38:01.000Z,279.27
2022-10-05T00:40:08.000Z,279.27
2022-10-05T00:41:34.000Z,279.27
2022-10-05T00:43:40.000Z,279.21
2022-10-05T00:45:07.000Z,279.34
2022-10-05T00:47:13.000Z,279.27
2022-10-05T00:48:39.000Z,279.34
2022-10-05T00:50:45.000Z,279.34
2022-10-05T00:52:12.000Z,279.27
2022-10-05T00:54:18.000Z,279.27
2022-10-05T00:55:44.000Z,279.27
2022-10-05T00:57:51.000Z,279.21
2022-10-05T00:59:17.000Z,279.27
2022-10-05T01:01:23.000Z,279.21
2022-10-05T01:04:14.000Z,279.21
2022-10-05T01:05:41.000Z,279.27
2022-10-05T01:07:47.000Z,279.21
2022-10-05T01:09:13.000Z,279.15
2022-10-05T01:11:19.000Z,279.09
2022-10-05T01:12:46.000Z,279.09
2022-10-05T01:14:52.000Z,279.02
2022-10-05T01:16:19.000Z,278.96
2022-10-05T01:18:25.000Z,278.9
2022-10-05T01:19:51.000Z,278.9
2022-10-05T01:21:57.000Z,278.9
2022-10-05T01:23:24.000Z,278.9
2022-10-05T01:25:30.000Z,278.84
2022-10-05T01:26:57.000Z,278.9
2022-10-05T01:29:03.000Z,278.96
2022-10-05T01:30:29.000Z,279.09
2022-10-05T01:32:36.000Z,279.09
2022-10-05T01:34:02.000Z,279.09
2022-10-05T01:36:15.000Z,279.09
2022-10-05T01:40:18.000Z,279.02
2022-10-05T01:43:09.000Z,279.02
2022-10-05T01:44:36.000Z,279.02
2022-10-05T01:46:42.000Z,279.02
2022-10-05T01:48:09.000Z,279.02
2022-10-05T01:50:15.000Z,278.9
2022-10-05T01:51:42.000Z,278.96
2022-10-05T01:53:48.000Z,278.9
2022-10-05T01:55:14.000Z,278.84
2022-10-05T01:57:20.000Z,278.77
2022-10-05T01:58:47.000Z,278.77
2022-10-05T02:00:53.000Z,278.71
2022-10-05T02:02:19.000Z,278.71
2022-10-05T02:04:26.000Z,278.71
2022-10-05T02:06:25.000Z,278.65
2022-10-05T02:08:31.000Z,278.71
2022-10-05T02:09:57.000Z,278.71
2022-10-05T02:12:03.000Z,278.71
2022-10-05T02:13:30.000Z,278.71
2022-10-05T02:15:36.000Z,278.65
2022-10-05T02:17:03.000Z,278.65
2022-10-05T02:19:09.000Z,278.71
2022-10-05T02:22:00.000Z,278.71
2022-10-05T02:23:26.000Z,278.77
2022-10-05T02:25:32.000Z,278.77
2022-10-05T02:26:59.000Z,278.84
2022-10-05T02:29:05.000Z,278.84
2022-10-05T02:30:31.000Z,278.77
2022-10-05T02:32:38.000Z,278.71
2022-10-05T02:34:04.000Z,278.71
2022-10-05T02:36:10.000Z,278.71
2022-10-05T02:37:37.000Z,278.77
2022-10-05T02:39:43.000Z,278.77
2022-10-05T02:41:09.000Z,278.77
2022-10-05T02:43:16.000Z,278.77
2022-10-05T02:44:42.000Z,278.84
2022-10-05T02:46:48.000Z,278.71
2022-10-05T02:48:21.000Z,278.65
2022-10-05T02:50:27.000Z,278.59
2022-10-05T02:51:54.000Z,278.52
2022-10-05T02:54:00.000Z,278.52
2022-10-05T02:55:26.000Z,278.46
2022-10-05T02:57:32.000Z,278.52
2022-10-05T03:00:23.000Z,278.52
2022-10-05T03:01:50.000Z,278.59
2022-10-05T03:03:56.000Z,278.46
2022-10-05T03:05:23.000Z,278.46
2022-10-05T03:07:29.000Z,278.46
2022-10-05T03:08:55.000Z,278.46
2022-10-05T03:11:01.000Z,278.52
2022-10-05T03:12:28.000Z,278.65
2022-10-05T03:14:34.000Z,278.65
2022-10-05T03:16:01.000Z,278.59
2022-10-05T03:18:07.000Z,278.71
2022-10-05T03:19:33.000Z,278.65
2022-10-05T03:21:40.000Z,278.71
2022-10-05T03:23:06.000Z,278.65
2022-10-05T03:25:12.000Z,278.65
2022-10-05T03:26:39.000Z,278.59
2022-10-05T03:28:45.000Z,278.59
2022-10-05T03:30:11.000Z,278.65
2022-10-05T03:32:17.000Z,278.59
2022-10-05T03:33:44.000Z,278.52
2022-10-05T03:35:50.000Z,278.46
2022-10-05T03:38:41.000Z,278.34
2022-10-05T03:40:08.000Z,278.4
2022-10-05T03:42:14.000Z,278.46
2022-10-05T03:43:40.000Z,278.46
2022-10-05T03:45:46.000Z,278.52
2022-10-05T03:47:13.000Z,278.46
2022-10-05T03:49:19.000Z,278.52
2022-10-05T03:50:45.000Z,278.52
2022-10-05T03:52:52.000Z,278.52
2022-10-05T03:54:18.000Z,278.52
2022-10-05T03:56:24.000Z,278.52
2022-10-05T03:57:51.000Z,278.46
2022-10-05T03:59:57.000Z,278.46
2022-10-05T04:01:23.000Z,278.46
2022-10-05T04:03:29.000Z,278.46
2022-10-05T04:04:56.000Z,278.52
2022-10-05T04:07:02.000Z,278.59
2022-10-05T04:08:28.000Z,278.65
2022-10-05T04:10:35.000Z,278.52
2022-10-05T04:12:01.000Z,278.52
2022-10-05T04:14:07.000Z,278.52
2022-10-05T04:16:58.000Z,278.46
2022-10-05T04:18:25.000Z,278.46
2022-10-05T04:20:31.000Z,278.46
2022-10-05T04:21:58.000Z,278.46
2022-10-05T04:24:04.000Z,278.46
2022-10-05T04:25:30.000Z,278.4
2022-10-05T04:27:36.000Z,278.34
2022-10-05T04:29:03.000Z,278.27
2022-10-05T04:31:09.000Z,278.27
2022-10-05T04:32:35.000Z,278.21
2022-10-05T04:34:42.000Z,278.21
2022-10-05T04:36:08.000Z,278.27
2022-10-05T04:38:14.000Z,278.27
2022-10-05T04:39:41.000Z,278.21
2022-10-05T04:41:47.000Z,278.15
2022-10-05T04:43:13.000Z,278.21
2022-10-05T04:45:19.000Z,278.21
2022-10-05T04:46:46.000Z,278.21
2022-10-05T04:48:53.000Z,278.21
2022-10-05T04:50:19.000Z,278.21
2022-10-05T04:52:25.000Z,278.21
2022-10-05T04:55:17.000Z,278.15
2022-10-05T04:56:43.000Z,278.15
2022-10-05T04:58:50.000Z,278.15
2022-10-05T05:00:16.000Z,278.15
2022-10-05T05:02:22.000Z,278.09
2022-10-05T05:03:49.000Z,278.02
2022-10-05T05:05:55.000Z,278.02
2022-10-05T05:07:40.000Z,278.02
2022-10-05T05:09:46.000Z,278.02
2022-10-05T05:11:13.000Z,278.02
2022-10-05T05:13:23.000Z,278.09
2022-10-05T05:14:50.000Z,278.09
2022-10-05T05:16:56.000Z,278.15
2022-10-05T05:18:23.000Z,278.21
2022-10-05T05:20:29.000Z,278.21
2022-10-05T05:21:55.000Z,278.27
2022-10-05T05:24:01.000Z,278.34
2022-10-05T05:25:28.000Z,278.34
2022-10-05T05:27:34.000Z,278.34
2022-10-05T05:29:00.000Z,278.46
2022-10-05T05:31:07.000Z,278.46
2022-10-05T05:33:58.000Z,278.52
2022-10-05T05:35:24.000Z,278.59
2022-10-05T05:37:30.000Z,278.65
2022-10-05T05:38:57.000Z,278.65
2022-10-05T05:41:03.000Z,278.65
2022-10-05T05:42:29.000Z,278.65
2022-10-05T05:44:36.000Z,278.65
2022-10-05T05:46:03.000Z,278.71
2022-10-05T05:48:09.000Z,278.65
2022-10-05T05:49:36.000Z,278.71
2022-10-05T05:51:42.000Z,278.71
2022-10-05T05:53:08.000Z,278.71
2022-10-05T05:55:14.000Z,278.71
2022-10-05T05:56:41.000Z,278.77
2022-10-05T05:58:48.000Z,278.71
2022-10-05T06:00:14.000Z,278.77
2022-10-05T06:02:20.000Z,278.77
2022-10-05T06:03:47.000Z,278.84
2022-10-05T06:05:53.000Z,278.84
2022-10-05T06:07:19.000Z,278.9
2022-10-05T06:09:32.000Z,279.09
2022-10-05T06:12:23.000Z,279.52
2022-10-05T06:13:49.000Z,279.77
2022-10-05T06:15:55.000Z,280.46
2022-10-05T06:17:22.000Z,280.96
2022-10-05T06:19:28.000Z,281.15
2022-10-05T06:20:55.000Z,281.15
2022-10-05T06:23:01.000Z,281.46
2022-10-05T06:24:27.000Z,281.21
2022-10-05T06:26:33.000Z,281.59
2022-10-05T06:28:00.000Z,281.59
2022-10-05T06:30:06.000Z,281.59
2022-10-05T06:31:33.000Z,281.84
2022-10-05T06:33:39.000Z,281.96
2022-10-05T06:35:05.000Z,282.34
2022-10-05T06:37:12.000Z,282.65
2022-10-05T06:38:38.000Z,282.52
2022-10-05T06:40:44.000Z,282.59
2022-10-05T06:42:11.000Z,282.59
2022-10-05T06:44:17.000Z,282.65
2022-10-05T06:45:43.000Z,282.71
2022-10-05T06:47:50.000Z,282.71
2022-10-05T06:50:41.000Z,282.96
2022-10-05T06:52:07.000Z,282.9
2022-10-05T06:54:13.000Z,282.84
2022-10-05T06:55:40.000Z,282.84
2022-10-05T06:57:46.000Z,282.9
2022-10-05T06:59:12.000Z,282.9
2022-10-05T07:01:18.000Z,283.09
2022-10-05T07:02:45.000Z,283.21
2022-10-05T07:04:51.000Z,283.09
2022-10-05T07:06:18.000Z,283.27
2022-10-05T07:08:24.000Z,283.4
2022-10-05T07:09:50.000Z,283.34
2022-10-05T07:11:56.000Z,283.46
2022-10-05T07:13:29.000Z,283.52
2022-10-05T07:15:35.000Z,283.59
2022-10-05T07:17:02.000Z,283.65
2022-10-05T07:19:08.000Z,283.71
2022-10-05T07:20:34.000Z,283.71
2022-10-05T07:22:41.000Z,283.77
2022-10-05T07:24:07.000Z,283.84
2022-10-05T07:26:13.000Z,283.9
2022-10-05T07:29:04.000Z,283.96
2022-10-05T07:30:31.000Z,283.9
2022-10-05T07:32:37.000Z,284.02
2022-10-05T07:34:03.000Z,283.9
2022-10-05T07:36:10.000Z,284.09
2022-10-05T07:37:36.000Z,284.21
2022-10-05T07:39:42.000Z,284.15
2022-10-05T07:41:24.000Z,284.21
2022-10-05T07:43:30.000Z,284.15
2022-10-05T07:45:25.000Z,284.15
2022-10-05T07:47:32.000Z,284.21
2022-10-05T07:48:58.000Z,284.15
2022-10-05T07:51:04.000Z,284.21
2022-10-05T07:52:31.000Z,284.09
2022-10-05T07:54:39.000Z,284.09
2022-10-05T07:56:05.000Z,284.09
2022-10-05T07:58:11.000Z,284.09
2022-10-05T07:59:38.000Z,284.09
2022-10-05T08:01:44.000Z,284.09
2022-10-05T08:03:11.000Z,284.15
2022-10-05T08:05:17.000Z,284.15
2022-10-05T08:08:08.000Z,284.15
2022-10-05T08:09:38.000Z,284.09
2022-10-05T08:11:44.000Z,284.15
2022-10-05T08:13:12.000Z,284.15
2022-10-05T08:15:18.000Z,284.15
2022-10-05T08:16:44.000Z,284.15
2022-10-05T08:18:50.000Z,284.15
2022-10-05T08:20:17.000Z,284.21
2022-10-05T08:22:23.000Z,284.27
2022-10-05T08:23:49.000Z,284.27
2022-10-05T08:25:55.000Z,284.27
2022-10-05T08:27:22.000Z,284.34
2022-10-05T08:29:28.000Z,284.4
2022-10-05T08:30:55.000Z,284.4
2022-10-05T08:33:01.000Z,284.52
2022-10-05T08:34:27.000Z,284.59
2022-10-05T08:36:33.000Z,284.65
2022-10-05T08:38:00.000Z,284.71
2022-10-05T08:40:06.000Z,284.77
2022-10-05T08:41:33.000Z,284.84
2022-10-05T08:43:39.000Z,284.84
2022-10-05T08:46:30.000Z,284.9
2022-10-05T08:47:57.000Z,284.96
2022-10-05T08:50:03.000Z,284.9
2022-10-05T08:51:29.000Z,284.96
2022-10-05T08:53:35.000Z,285.02
2022-10-05T08:55:02.000Z,285.02
2022-10-05T08:57:08.000Z,285.02
2022-10-05T08:58:35.000Z,285.02
2022-10-05T09:00:41.000Z,285.09
2022-10-05T09:02:07.000Z,285.09
2022-10-05T09:04:13.000Z,285.15
2022-10-05T09:05:40.000Z,285.15
2022-10-05T09:07:46.000Z,285.21
2022-10-05T09:09:12.000Z,285.21
2022-10-05T09:11:19.000Z,285.4
2022-10-05T09:12:45.000Z,285.4
2022-10-05T09:14:51.000Z,285.52
2022-10-05T09:16:48.000Z,285.52
2022-10-05T09:18:54.000Z,285.65
2022-10-05T09:20:21.000Z,285.65
2022-10-05T09:22:27.000Z,285.84
2022-10-05T09:25:18.000Z,285.96
2022-10-05T09:26:45.000Z,286.09
2022-10-05T09:28:51.000Z,286.09
2022-10-05T09:30:17.000Z,286.15
2022-10-05T09:32:23.000Z,286.34
2022-10-05T09:33:50.000Z,286.4
2022-10-05T09:35:56.000Z,286.52
2022-10-05T09:37:22.000Z,286.77
2022-10-05T09:39:28.000Z,286.84
2022-10-05T09:40:55.000Z,286.9
2022-10-05T09:43:01.000Z,287.02
2022-10-05T09:44:28.000Z,287.15
2022-10-05T09:46:34.000Z,287.02
2022-10-05T09:48:00.000Z,287.09
2022-10-05T09:50:07.000Z,287.21
2022-10-05T09:51:33.000Z,287.27
2022-10-05T09:53:39.000Z,287.4
2022-10-05T09:55:06.000Z,287.34
2022-10-05T09:57:12.000Z,287.27
2022-10-05T09:58:38.000Z,287.27
2022-10-05T10:00:44.000Z,287.34
2022-10-05T10:03:52.000Z,287.21
2022-10-05T10:05:19.000Z,287.4
2022-10-05T10:07:25.000Z,287.52
2022-10-05T10:08:51.000Z,287.59
2022-10-05T10:10:57.000Z,287.65
2022-10-05T10:12:24.000Z,287.59
2022-10-05T10:14:30.000Z,287.84
2022-10-05T10:15:57.000Z,287.77
2022-10-05T10:18:03.000Z,287.84
2022-10-05T10:19:29.000Z,287.96
2022-10-05T10:21:35.000Z,287.84
2022-10-05T10:23:02.000Z,287.84
2022-10-05T10:25:08.000Z,288.09
2022-10-05T10:26:34.000Z,288.09
2022-10-05T10:28:40.000Z,288.27
2022-10-05T10:30:07.000Z,288.4
2022-10-05T10:32:13.000Z,288.46
2022-10-05T10:33:40.000Z,288.65
2022-10-05T10:35:46.000Z,288.52
2022-10-05T10:37:12.000Z,288.52
2022-10-05T10:39:18.000Z,288.59
2022-10-05T10:42:09.000Z,288.65
2022-10-05T10:43:36.000Z,288.71
2022-10-05T10:45:42.000Z,288.65
2022-10-05T10:47:08.000Z,288.71
2022-10-05T10:49:15.000Z,288.65
2022-10-05T10:50:41.000Z,288.77
2022-10-05T10:52:47.000Z,288.84
2022-10-05T10:54:14.000Z,288.84
2022-10-05T10:56:20.000Z,288.9
2022-10-05T10:57:46.000Z,288.96
2022-10-05T10:59:52.000Z,289.02
2022-10-05T11:01:19.000Z,289.09
2022-10-05T11:03:25.000Z,289.02
2022-10-05T11:04:52.000Z,289.09
2022-10-05T11:06:58.000Z,289.02
2022-10-05T11:08:24.000Z,289.09
2022-10-05T11:10:31.000Z,289.15
2022-10-05T11:11:57.000Z,289.21
2022-10-05T11:14:03.000Z,289.34
2022-10-05T11:15:30.000Z,289.27
2022-10-05T11:17:36.000Z,289.27
2022-10-05T11:20:27.000Z,289.34
2022-10-05T11:21:53.000Z,289.27
2022-10-05T11:24:00.000Z,289.34
2022-10-05T11:25:26.000Z,289.4
2022-10-05T11:27:32.000Z,289.34
2022-10-05T11:28:59.000Z,289.34
2022-10-05T11:31:05.000Z,289.34
2022-10-05T11:32:31.000Z,289.46
2022-10-05T11:34:38.000Z,289.52
2022-10-05T11:36:04.000Z,289.46
2022-10-05T11:38:10.000Z,289.34
2022-10-05T11:39:37.000Z,289.4
2022-10-05T11:41:43.000Z,289.4
2022-10-05T11:43:10.000Z,289.4
2022-10-05T11:45:16.000Z,289.46
2022-10-05T11:46:43.000Z,289.46
2022-10-05T11:48:49.000Z,289.52
2022-10-05T11:50:15.000Z,289.59
2022-10-05T11:52:21.000Z,289.65
2022-10-05T11:53:48.000Z,289.65
2022-10-05T11:55:54.000Z,289.77
2022-10-05T11:58:45.000Z,289.84
2022-10-05T12:00:12.000Z,289.77
2022-10-05T12:02:18.000Z,289.65
2022-10-05T12:03:44.000Z,289.84
2022-10-05T12:05:51.000Z,289.9
2022-10-05T12:07:17.000Z,290.09
2022-10-05T12:09:23.000Z,289.9
2022-10-05T12:10:50.000Z,289.9
2022-10-05T12:12:56.000Z,289.9
2022-10-05T12:14:23.000Z,290.02
2022-10-05T12:16:29.000Z,290.02
2022-10-05T12:17:55.000Z,289.96
2022-10-05T12:20:01.000Z,290.02
2022-10-05T12:21:28.000Z,290.09
2022-10-05T12:23:34.000Z,290.02
2022-10-05T12:25:01.000Z,290.02
2022-10-05T12:27:07.000Z,290.27
2022-10-05T12:28:33.000Z,290.21
2022-10-05T12:30:39.000Z,290.4
2022-10-05T12:32:06.000Z,290.52
2022-10-05T12:34:12.000Z,290.4
2022-10-05T12:37:03.000Z,290.15
2022-10-05T12:38:30.000Z,290.02
2022-10-05T12:40:36.000Z,290.02
2022-10-05T12:42:02.000Z,290.34
2022-10-05T12:44:09.000Z,290.34
2022-10-05T12:45:35.000Z,290.27
2022-10-05T12:47:41.000Z,290.09
2022-10-05T12:49:08.000Z,290.15
2022-10-05T12:51:14.000Z,290.02
2022-10-05T12:52:40.000Z,290.02
2022-10-05T12:54:47.000Z,290.15
2022-10-05T12:56:13.000Z,290.02
2022-10-05T12:58:19.000Z,290.02
2022-10-05T12:59:46.000Z,290.02
2022-10-05T13:01:52.000Z,290.27
2022-10-05T13:03:18.000Z,290.59
2022-10-05T13:05:24.000Z,290.77
2022-10-05T13:06:51.000Z,290.59
2022-10-05T13:08:57.000Z,290.65
2022-10-05T13:10:23.000Z,290.65
2022-10-05T13:12:30.000Z,290.65
2022-10-05T13:15:21.000Z,290.59
2022-10-05T13:16:47.000Z,290.65
2022-10-05T13:18:59.000Z,290.71
2022-10-05T13:20:25.000Z,290.65
2022-10-05T13:22:31.000Z,290.71
2022-10-05T13:23:58.000Z,290.59
2022-10-05T13:26:04.000Z,290.65
2022-10-05T13:27:30.000Z,290.71
2022-10-05T13:29:37.000Z,290.84
2022-10-05T13:31:03.000Z,290.9
2022-10-05T13:33:09.000Z,290.9
2022-10-05T13:34:36.000Z,290.84
2022-10-05T13:36:42.000Z,290.84
2022-10-05T13:38:08.000Z,290.84
2022-10-05T13:40:14.000Z,290.9
2022-10-05T13:41:41.000Z,290.77
2022-10-05T13:43:47.000Z,290.77
2022-10-05T13:45:14.000Z,290.77
2022-10-05T13:47:20.000Z,290.84
2022-10-05T13:48:46.000Z,290.84
2022-10-05T13:50:52.000Z,290.77
2022-10-05T13:53:43.000Z,290.9
2022-10-05T13:55:10.000Z,291.02
2022-10-05T13:57:16.000Z,291.09
2022-10-05T13:58:43.000Z,291.09
2022-10-05T14:00:49.000Z,290.96
2022-10-05T14:02:15.000Z,291.02
2022-10-05T14:04:21.000Z,291.02
2022-10-05T14:05:48.000Z,291.02
2022-10-05T14:07:59.000Z,291.02
2022-10-05T14:09:26.000Z,291.09
2022-10-05T14:11:32.000Z,291.09
2022-10-05T14:12:58.000Z,291.15
2022-10-05T14:15:04.000Z,291.21
2022-10-05T14:16:31.000Z,291.27
2022-10-05T14:18:37.000Z,291.27
2022-10-05T14:20:04.000Z,291.21
2022-10-05T14:22:10.000Z,291.27
2022-10-05T14:23:36.000Z,291.21
2022-10-05T14:25:42.000Z,291.34
2022-10-05T14:27:09.000Z,291.27
2022-10-05T14:29:15.000Z,291.34
2022-10-05T14:32:06.000Z,291.34
2022-10-05T14:33:33.000Z,291.34
2022-10-05T14:35:39.000Z,291.27
2022-10-05T14:37:05.000Z,291.34
2022-10-05T14:39:12.000Z,291.27
2022-10-05T14:40:38.000Z,291.27
2022-10-05T14:42:44.000Z,291.27
2022-10-05T14:44:11.000Z,291.34
2022-10-05T14:46:18.000Z,291.34
2022-10-05T14:47:51.000Z,291.4
2022-10-05T14:49:57.000Z,291.4
2022-10-05T14:51:24.000Z,291.4
2022-10-05T14:53:30.000Z,291.4
2022-10-05T14:54:57.000Z,291.34
2022-10-05T14:57:03.000Z,291.21
2022-10-05T14:58:29.000Z,291.27
2022-10-05T15:00:35.000Z,291.27
2022-10-05T15:02:02.000Z,291.34
2022-10-05T15:04:08.000Z,291.34
2022-10-05T15:05:34.000Z,291.27
2022-10-05T15:07:41.000Z,291.21
2022-10-05T15:10:32.000Z,291.27
2022-10-05T15:11:58.000Z,291.21
2022-10-05T15:14:04.000Z,291.21
2022-10-05T15:15:31.000Z,291.21
2022-10-05T15:17:37.000Z,291.15
2022-10-05T15:19:03.000Z,291.09
2022-10-05T15:21:09.000Z,291.02
2022-10-05T15:22:36.000Z,290.96
2022-10-05T15:24:42.000Z,290.9
2022-10-05T15:26:08.000Z,290.84
2022-10-05T15:28:15.000Z,290.77
2022-10-05T15:29:41.000Z,290.77
2022-10-05T15:31:52.000Z,290.71
2022-10-05T15:33:19.000Z,290.65
2022-10-05T15:35:25.000Z,290.65
2022-10-05T15:36:51.000Z,290.59
2022-10-05T15:38:57.000Z,290.59
2022-10-05T15:40:25.000Z,290.59
2022-10-05T15:42:31.000Z,290.52
2022-10-05T15:43:57.000Z,290.46
2022-10-05T15:46:03.000Z,290.4
2022-10-05T15:48:55.000Z,290.34
2022-10-05T15:50:21.000Z,290.34
2022-10-05T15:52:27.000Z,290.34
2022-10-05T15:53:54.000Z,290.34
2022-10-05T15:56:00.000Z,290.27
2022-10-05T15:57:26.000Z,290.27
2022-10-05T15:59:32.000Z,290.21
2022-10-05T16:00:59.000Z,290.15
2022-10-05T16:03:05.000Z,290.09
2022-10-05T16:04:31.000Z,290.09
2022-10-05T16:06:38.000Z,290.02
2022-10-05T16:08:04.000Z,290.02
2022-10-05T16:10:10.000Z,289.96
2022-10-05T16:11:37.000Z,289.9
2022-10-05T16:13:43.000Z,289.84
2022-10-05T16:15:09.000Z,289.84
2022-10-05T16:17:15.000Z,289.77
2022-10-05T16:18:42.000Z,289.59
2022-10-05T16:20:48.000Z,289.59
2022-10-05T16:22:15.000Z,289.59
2022-10-05T16:24:21.000Z,289.46
2022-10-05T16:27:12.000Z,289.46
2022-10-05T16:28:39.000Z,289.46
2022-10-05T16:30:45.000Z,289.46
2022-10-05T16:32:12.000Z,289.4
2022-10-05T16:34:18.000Z,289.4
2022-10-05T16:35:44.000Z,289.46
2022-10-05T16:37:50.000Z,289.4
2022-10-05T16:39:17.000Z,289.34
2022-10-05T16:41:23.000Z,289.27
2022-10-05T16:42:50.000Z,289.21
2022-10-05T16:44:56.000Z,289.21
2022-10-05T16:46:22.000Z,289.27
2022-10-05T16:48:32.000Z,289.27
2022-10-05T16:49:58.000Z,289.21
2022-10-05T16:52:04.000Z,289.15
2022-10-05T16:53:31.000Z,289.15
2022-10-05T16:55:37.000Z,289.09
2022-10-05T16:57:04.000Z,289.09
2022-10-05T16:59:10.000Z,289.02
2022-10-05T17:00:36.000Z,289.02
2022-10-05T17:02:43.000Z,289.02
2022-10-05T17:05:34.000Z,288.96
2022-10-05T17:07:00.000Z,288.96
2022-10-05T17:09:06.000Z,288.96
2022-10-05T17:10:33.000Z,288.96
2022-10-05T17:12:39.000Z,288.9
2022-10-05T17:14:05.000Z,288.9
2022-10-05T17:16:12.000Z,288.9
2022-10-05T17:17:38.000Z,288.84
2022-10-05T17:19:44.000Z,288.84
2022-10-05T17:21:11.000Z,288.9
2022-10-05T17:23:17.000Z,288.77
2022-10-05T17:24:43.000Z,288.71
2022-10-05T17:26:49.000Z,288.65
2022-10-05T17:28:16.000Z,288.65
2022-10-05T17:30:22.000Z,288.59
2022-10-05T17:31:49.000Z,288.59
2022-10-05T17:33:55.000Z,288.52
2022-10-05T17:35:21.000Z,288.46
2022-10-05T17:37:27.000Z,288.46
2022-10-05T17:38:54.000Z,288.46
2022-10-05T17:41:00.000Z,288.34
2022-10-05T17:43:51.000Z,288.21
2022-10-05T17:45:17.000Z,288.21
2022-10-05T17:47:23.000Z,288.09
2022-10-05T17:48:50.000Z,287.96
2022-10-05T17:50:56.000Z,287.9
2022-10-05T17:52:23.000Z,287.9
2022-10-05T17:54:29.000Z,287.71
2022-10-05T17:55:55.000Z,287.71
2022-10-05T17:58:01.000Z,287.52
2022-10-05T17:59:28.000Z,287.46
2022-10-05T18:01:34.000Z,287.4
2022-10-05T18:03:00.000Z,287.4
2022-10-05T18:05:07.000Z,287.27
2022-10-05T18:06:33.000Z,287.21
2022-10-05T18:08:39.000Z,287.09
2022-10-05T18:10:06.000Z,287.09
2022-10-05T18:12:12.000Z,286.96
2022-10-05T18:13:38.000Z,287.02
2022-10-05T18:15:44.000Z,286.84
2022-10-05T18:17:11.000Z,286.77
2022-10-05T18:19:17.000Z,286.77
2022-10-05T18:22:08.000Z,286.71
2022-10-05T18:23:35.000Z,286.71
2022-10-05T18:25:41.000Z,286.65
2022-10-05T18:27:07.000Z,286.59
2022-10-05T18:29:14.000Z,286.46
2022-10-05T18:30:40.000Z,286.46
2022-10-05T18:32:46.000Z,286.27
2022-10-05T18:34:13.000Z,286.4
2022-10-05T18:36:19.000Z,286.34
2022-10-05T18:37:45.000Z,286.34
2022-10-05T18:39:51.000Z,286.27
2022-10-05T18:41:18.000Z,286.34
2022-10-05T18:43:24.000Z,286.27
2022-10-05T18:44:51.000Z,286.21
2022-10-05T18:46:57.000Z,286.15
2022-10-05T18:48:23.000Z,286.09
2022-10-05T18:50:30.000Z,286.09
2022-10-05T18:51:56.000Z,286.09
2022-10-05T18:54:02.000Z,286.02
2022-10-05T18:55:29.000Z,285.96
2022-10-05T18:57:35.000Z,285.84
2022-10-05T19:00:26.000Z,285.84
2022-10-05T19:01:52.000Z,285.77
2022-10-05T19:03:59.000Z,285.84
2022-10-05T19:05:25.000Z,285.77
2022-10-05T19:07:50.000Z,285.77
2022-10-05T19:09:17.000Z,285.77
2022-10-05T19:11:23.000Z,285.71
2022-10-05T19:12:49.000Z,285.77
2022-10-05T19:14:56.000Z,285.77
2022-10-05T19:16:22.000Z,285.71
2022-10-05T19:18:28.000Z,285.65
2022-10-05T19:19:55.000Z,285.71
2022-10-05T19:22:01.000Z,285.65
2022-10-05T19:23:28.000Z,285.71
2022-10-05T19:25:34.000Z,285.65
2022-10-05T19:27:01.000Z,285.65
2022-10-05T19:29:07.000Z,285.71
2022-10-05T19:30:33.000Z,285.71
2022-10-05T19:32:39.000Z,285.65
2022-10-05T19:34:06.000Z,285.77
2022-10-05T19:36:12.000Z,285.84
2022-10-05T19:39:03.000Z,285.84
2022-10-05T19:40:30.000Z,285.84
2022-10-05T19:42:36.000Z,285.84
2022-10-05T19:44:02.000Z,285.84
2022-10-05T19:46:08.000Z,285.84
2022-10-05T19:47:35.000Z,285.77
2022-10-05T19:49:45.000Z,285.84
2022-10-05T19:51:11.000Z,285.84
2022-10-05T19:53:17.000Z,286.02
2022-10-05T19:54:44.000Z,286.27
2022-10-05T19:56:50.000Z,286.21
2022-10-05T19:58:16.000Z,286.27
2022-10-05T20:00:22.000Z,286.46
2022-10-05T20:01:49.000Z,286.46
2022-10-05T20:03:55.000Z,286.4
2022-10-05T20:05:22.000Z,286.4
2022-10-05T20:07:28.000Z,286.84
2022-10-05T20:08:55.000Z,286.77
2022-10-05T20:11:01.000Z,286.71
2022-10-05T20:12:27.000Z,286.71
2022-10-05T20:14:33.000Z,286.84
2022-10-05T20:17:25.000Z,286.71
2022-10-05T20:18:51.000Z,286.77
2022-10-05T20:20:57.000Z,286.77
2022-10-05T20:22:24.000Z,286.9
2022-10-05T20:24:30.000Z,287.21
2022-10-05T20:25:57.000Z,287.09
2022-10-05T20:28:03.000Z,286.96
2022-10-05T20:29:29.000Z,286.9
2022-10-05T20:31:35.000Z,286.84
2022-10-05T20:33:02.000Z,286.96
2022-10-05T20:35:08.000Z,287.15
2022-10-05T20:36:35.000Z,287.02
2022-10-05T20:38:41.000Z,286.9
2022-10-05T20:40:07.000Z,286.84
2022-10-05T20:42:13.000Z,286.84
2022-10-05T20:43:40.000Z,286.77
2022-10-05T20:45:46.000Z,286.77
2022-10-05T20:47:13.000Z,287.21
2022-10-05T20:49:19.000Z,286.96
2022-10-05T20:50:45.000Z,287.09
2022-10-05T20:52:51.000Z,286.96
2022-10-05T20:55:43.000Z,286.9
2022-10-05T20:57:09.000Z,286.9
2022-10-05T20:59:15.000Z,286.9
2022-10-05T21:00:42.000Z,286.96
2022-10-05T21:02:48.000Z,287.09
2022-10-05T21:04:15.000Z,287.09
2022-10-05T21:06:21.000Z,287.02
2022-10-05T21:07:47.000Z,286.96
2022-10-05T21:09:53.000Z,286.9
2022-10-05T21:11:20.000Z,287.15
2022-10-05T21:13:26.000Z,287.4
2022-10-05T21:14:53.000Z,287.52
2022-10-05T21:16:59.000Z,287.21
2022-10-05T21:18:25.000Z,287.21
2022-10-05T21:20:32.000Z,287.15
2022-10-05T21:21:58.000Z,287.02
2022-10-05T21:24:04.000Z,286.96
2022-10-05T21:25:31.000Z,286.96
2022-10-05T21:27:37.000Z,286.96
2022-10-05T21:29:03.000Z,286.84
2022-10-05T21:31:16.000Z,286.9
2022-10-05T21:34:07.000Z,286.9
2022-10-05T21:35:34.000Z,286.84
2022-10-05T21:37:40.000Z,286.84
2022-10-05T21:39:07.000Z,286.84
2022-10-05T21:41:13.000Z,286.77
2022-10-05T21:42:39.000Z,286.71
2022-10-05T21:44:45.000Z,286.71
2022-10-05T21:46:12.000Z,286.77
2022-10-05T21:48:18.000Z,287.09
2022-10-05T21:49:44.000Z,287.02
2022-10-05T21:51:50.000Z,286.96
2022-10-05T21:53:17.000Z,286.84
2022-10-05T21:55:23.000Z,286.71
2022-10-05T21:56:50.000Z,286.77
2022-10-05T21:58:56.000Z,286.96
2022-10-05T22:00:22.000Z,286.84
2022-10-05T22:02:28.000Z,286.96
2022-10-05T22:03:55.000Z,287.34
2022-10-05T22:06:01.000Z,287.27
2022-10-05T22:07:28.000Z,287.21
2022-10-05T22:09:34.000Z,287.09
2022-10-05T22:12:25.000Z,287.34
2022-10-05T22:13:51.000Z,287.15
2022-10-05T22:15:58.000Z,287.15
2022-10-05T22:17:24.000Z,287.46
2022-10-05T22:19:30.000Z,287.59
2022-10-05T22:20:57.000Z,287.65
2022-10-05T22:23:03.000Z,287.65
2022-10-05T22:24:30.000Z,287.84
2022-10-05T22:26:36.000Z,287.65
2022-10-05T22:28:02.000Z,287.71
2022-10-05T22:30:08.000Z,287.65
2022-10-05T22:31:35.000Z,287.46
2022-10-05T22:33:41.000Z,287.59
2022-10-05T22:35:07.000Z,287.77
2022-10-05T22:37:15.000Z,287.65
2022-10-05T22:38:42.000Z,287.84
2022-10-05T22:40:48.000Z,287.9
2022-10-05T22:42:15.000Z,287.9
2022-10-05T22:44:21.000Z,287.9
2022-10-05T22:45:47.000Z,287.84
2022-10-05T22:47:53.000Z,287.71
2022-10-05T22:50:44.000Z,287.65
2022-10-05T22:52:11.000Z,287.65
2022-10-05T22:54:17.000Z,287.77
2022-10-05T22:55:43.000Z,287.84